West Chester, Ohio
Current Conditions -  °F | °C
As of 12:53 AM on Wednesday 22 Oct 2014 (Local Time) from KHAO Reporting Station
Overcast Overcast  
Wind Chill:   Ceiling: 3500
Heat Index:   Visibility: 10mi
Dew Point:   Wind: 10mph
Humidity: 66%   Direction: 360°N
Pressure: 30.2"   Gusts: NA
Location:  39.33°N, 84.4°W
Report Text: KHAO 220453Z AUTO 36009KT 10SM OVC035 09/03 A3020 RMK AO2 SLP229 T00890028 401330078
Loading
Personal Weather Stations






























Interactive Weather Map
Tropical Storm Tracking
New forecast layout! Learn more

10-Day Weather Forecast

Advertisements
Track Severe Weather on mobile